sensor_id;sensor_type;location;lat;lon;timestamp;pressure;altitude;pressure_sealevel;temperature;humidity
75317;BME280;63913;51.492;10.368;2023-02-01T00:01:41;98474.94;;;3.50;79.00
75317;BME280;63913;51.492;10.368;2023-02-01T00:04:06;98477.28;;;3.45;78.62
75317;BME280;63913;51.492;10.368;2023-02-01T00:06:31;98468.78;;;3.44;78.59
75317;BME280;63913;51.492;10.368;2023-02-01T00:08:57;98486.78;;;3.49;78.69
75317;BME280;63913;51.492;10.368;2023-02-01T00:11:23;98467.91;;;3.44;79.11
75317;BME280;63913;51.492;10.368;2023-02-01T00:13:49;98477.28;;;3.45;79.11
75317;BME280;63913;51.492;10.368;2023-02-01T00:16:17;98469.81;;;3.48;78.97
75317;BME280;63913;51.492;10.368;2023-02-01T00:18:44;98467.81;;;3.42;79.54
75317;BME280;63913;51.492;10.368;2023-02-01T00:21:14;98450.78;;;3.40;79.08
75317;BME280;63913;51.492;10.368;2023-02-01T00:23:40;98439.50;;;3.35;78.88
75317;BME280;63913;51.492;10.368;2023-02-01T00:26:07;98454.13;;;3.39;79.13
75317;BME280;63913;51.492;10.368;2023-02-01T00:28:36;98440.28;;;3.34;78.96
75317;BME280;63913;51.492;10.368;2023-02-01T00:31:03;98456.75;;;3.40;79.16
75317;BME280;63913;51.492;10.368;2023-02-01T00:33:30;98448.38;;;3.43;78.65
75317;BME280;63913;51.492;10.368;2023-02-01T00:35:57;98448.25;;;3.40;79.03
75317;BME280;63913;51.492;10.368;2023-02-01T00:38:23;98456.75;;;3.40;79.50
75317;BME280;63913;51.492;10.368;2023-02-01T00:40:48;98443.00;;;3.37;79.24
75317;BME280;63913;51.492;10.368;2023-02-01T00:43:13;98448.25;;;3.40;78.95
75317;BME280;63913;51.492;10.368;2023-02-01T00:45:39;98435.22;;;3.34;79.36
75317;BME280;63913;51.492;10.368;2023-02-01T00:48:04;98433.63;;;3.36;79.00
75317;BME280;63913;51.492;10.368;2023-02-01T00:50:30;98429.13;;;3.30;78.86
75317;BME280;63913;51.492;10.368;2023-02-01T00:52:55;98437.03;;;3.36;78.60
75317;BME280;63913;51.492;10.368;2023-02-01T00:55:21;98444.09;;;3.42;78.99
75317;BME280;63913;51.492;10.368;2023-02-01T00:57:46;98433.78;;;3.39;78.95
75317;BME280;63913;51.492;10.368;2023-02-01T01:00:12;98449.31;;;3.45;78.60
75317;BME280;63913;51.492;10.368;2023-02-01T01:02:37;98451.66;;;3.40;78.40
75317;BME280;63913;51.492;10.368;2023-02-01T01:05:03;98451.66;;;3.40;78.36
75317;BME280;63913;51.492;10.368;2023-02-01T01:07:28;98446.50;;;3.39;78.41
75317;BME280;63913;51.492;10.368;2023-02-01T01:09:53;98451.56;;;3.39;78.96
75317;BME280;63913;51.492;10.368;2023-02-01T01:12:19;98451.56;;;3.39;78.72
75317;BME280;63913;51.492;10.368;2023-02-01T01:14:45;98445.53;;;3.37;79.13
75317;BME280;63913;51.492;10.368;2023-02-01T01:17:10;98449.13;;;3.40;78.56
75317;BME280;63913;51.492;10.368;2023-02-01T01:19:36;98440.47;;;3.37;78.67
75317;BME280;63913;51.492;10.368;2023-02-01T01:22:01;98445.53;;;3.37;78.89
75317;BME280;63913;51.492;10.368;2023-02-01T01:24:26;98450.53;;;3.35;78.56
75317;BME280;63913;51.492;10.368;2023-02-01T01:26:52;98450.44;;;3.34;78.98
75317;BME280;63913;51.492;10.368;2023-02-01T01:29:18;98434.28;;;3.32;78.68
75317;BME280;63913;51.492;10.368;2023-02-01T01:31:43;98432.53;;;3.31;79.00
75317;BME280;63913;51.492;10.368;2023-02-01T01:34:09;98439.41;;;3.33;78.86
75317;BME280;63913;51.492;10.368;2023-02-01T01:36:34;98430.09;;;3.32;78.70
75317;BME280;63913;51.492;10.368;2023-02-01T01:38:59;98437.91;;;3.37;78.49
75317;BME280;63913;51.492;10.368;2023-02-01T01:41:29;98414.84;;;3.32;78.21
75317;BME280;63913;51.492;10.368;2023-02-01T01:44:03;98422.59;;;3.35;78.06
75317;BME280;63913;51.492;10.368;2023-02-01T01:46:37;98414.88;;;3.34;78.00
75317;BME280;63913;51.492;10.368;2023-02-01T01:49:10;98420.13;;;3.37;78.15
75317;BME280;63913;51.492;10.368;2023-02-01T01:51:47;98415.63;;;3.31;77.77
75317;BME280;63913;51.492;10.368;2023-02-01T01:54:18;98407.22;;;3.32;77.87
75317;BME280;63913;51.492;10.368;2023-02-01T01:56:49;98399.63;;;3.34;77.28
75317;BME280;63913;51.492;10.368;2023-02-01T01:59:16;98401.19;;;3.30;77.80
75317;BME280;63913;51.492;10.368;2023-02-01T02:01:42;98405.31;;;3.28;77.56
75317;BME280;63913;51.492;10.368;2023-02-01T02:04:07;98407.84;;;3.28;77.44
75317;BME280;63913;51.492;10.368;2023-02-01T02:06:40;98405.47;;;3.31;77.58
75317;BME280;63913;51.492;10.368;2023-02-01T02:09:06;98418.97;;;3.30;77.58
75317;BME280;63913;51.492;10.368;2023-02-01T02:11:32;98413.22;;;3.34;77.09
75317;BME280;63913;51.492;10.368;2023-02-01T02:13:58;98408.06;;;3.33;76.86
75317;BME280;63913;51.492;10.368;2023-02-01T02:28:29;98398.56;;;3.29;76.80
75317;BME280;63913;51.492;10.368;2023-02-01T02:34:01;98385.19;;;3.33;76.92
75317;BME280;63913;51.492;10.368;2023-02-01T02:42:04;98375.53;;;3.26;76.93
75317;BME280;63913;51.492;10.368;2023-02-01T02:45:04;98369.53;;;3.24;77.18
75317;BME280;63913;51.492;10.368;2023-02-01T02:48:09;98366.03;;;3.22;76.99
75317;BME280;63913;51.492;10.368;2023-02-01T02:50:58;98367.78;;;3.23;76.83
75317;BME280;63913;51.492;10.368;2023-02-01T02:56:49;98357.38;;;3.18;76.24
75317;BME280;63913;51.492;10.368;2023-02-01T02:59:35;98362.34;;;3.15;76.57
75317;BME280;63913;51.492;10.368;2023-02-01T03:02:21;98336.97;;;3.17;76.20
75317;BME280;63913;51.492;10.368;2023-02-01T03:05:06;98340.34;;;3.16;76.93
75317;BME280;63913;51.492;10.368;2023-02-01T03:11:02;98336.06;;;3.15;76.12
75317;BME280;63913;51.492;10.368;2023-02-01T03:13:11;98335.09;;;3.13;76.75
75317;BME280;63913;51.492;10.368;2023-02-01T03:15:39;98322.41;;;3.13;76.59
75317;BME280;63913;51.492;10.368;2023-02-01T03:18:29;98336.78;;;3.12;77.29
75317;BME280;63913;51.492;10.368;2023-02-01T03:20:58;98327.66;;;3.16;76.98
75317;BME280;63913;51.492;10.368;2023-02-01T03:23:28;98320.06;;;3.17;76.53
75317;BME280;63913;51.492;10.368;2023-02-01T03:25:56;98316.53;;;3.14;76.97
75317;BME280;63913;51.492;10.368;2023-02-01T03:28:23;98320.91;;;3.16;77.10
75317;BME280;63913;51.492;10.368;2023-02-01T03:30:50;98320.81;;;3.15;76.58
75317;BME280;63913;51.492;10.368;2023-02-01T03:33:19;98306.50;;;3.17;76.44
75317;BME280;63913;51.492;10.368;2023-02-01T03:41:42;98304.13;;;3.20;76.96
75317;BME280;63913;51.492;10.368;2023-02-01T03:44:16;98306.56;;;3.18;77.13
75317;BME280;63913;51.492;10.368;2023-02-01T03:46:49;98284.75;;;3.22;76.46
75317;BME280;63913;51.492;10.368;2023-02-01T03:49:36;98281.34;;;3.21;76.98
75317;BME280;63913;51.492;10.368;2023-02-01T03:52:06;98269.28;;;3.17;77.05
75317;BME280;63913;51.492;10.368;2023-02-01T03:54:35;98275.38;;;3.21;77.06
75317;BME280;63913;51.492;10.368;2023-02-01T03:57:05;98262.59;;;3.19;77.15
75317;BME280;63913;51.492;10.368;2023-02-01T03:59:31;98267.91;;;3.24;77.31
75317;BME280;63913;51.492;10.368;2023-02-01T04:01:57;98273.00;;;3.24;77.37
75317;BME280;63913;51.492;10.368;2023-02-01T04:04:22;98274.66;;;3.23;77.39
75317;BME280;63913;51.492;10.368;2023-02-01T04:06:51;98259.19;;;3.19;77.34
75317;BME280;63913;51.492;10.368;2023-02-01T04:09:17;98253.31;;;3.20;77.30
75317;BME280;63913;51.492;10.368;2023-02-01T04:11:43;98246.56;;;3.20;77.22
75317;BME280;63913;51.492;10.368;2023-02-01T04:14:09;98249.78;;;3.16;77.31
75317;BME280;63913;51.492;10.368;2023-02-01T04:16:34;98254.19;;;3.20;77.55
75317;BME280;63913;51.492;10.368;2023-02-01T04:19:00;98252.53;;;3.21;77.52
75317;BME280;63913;51.492;10.368;2023-02-01T04:21:26;98238.78;;;3.17;77.30
75317;BME280;63913;51.492;10.368;2023-02-01T04:23:52;98242.22;;;3.18;77.79
75317;BME280;63913;51.492;10.368;2023-02-01T04:26:18;98228.72;;;3.19;78.01
75317;BME280;63913;51.492;10.368;2023-02-01T04:28:44;98224.38;;;3.16;77.71
75317;BME280;63913;51.492;10.368;2023-02-01T04:31:09;98222.75;;;3.18;77.61
75317;BME280;63913;51.492;10.368;2023-02-01T04:33:35;98217.47;;;3.14;78.21
75317;BME280;63913;51.492;10.368;2023-02-01T04:36:00;98222.69;;;3.17;77.86
75317;BME280;63913;51.492;10.368;2023-02-01T04:38:26;98224.31;;;3.15;77.90
75317;BME280;63913;51.492;10.368;2023-02-01T04:40:52;98212.41;;;3.14;78.42
75317;BME280;63913;51.492;10.368;2023-02-01T04:43:17;98215.66;;;3.11;78.15
75317;BME280;63913;51.492;10.368;2023-02-01T04:45:47;98216.47;;;3.10;78.82
75317;BME280;63913;51.492;10.368;2023-02-01T04:48:14;98230.97;;;3.13;79.24
75317;BME280;63913;51.492;10.368;2023-02-01T04:50:39;98210.38;;;3.06;78.75
75317;BME280;63913;51.492;10.368;2023-02-01T04:53:05;98219.66;;;3.06;79.04
75317;BME280;63913;51.492;10.368;2023-02-01T04:55:30;98226.50;;;3.07;79.97
75317;BME280;63913;51.492;10.368;2023-02-01T04:57:56;98206.72;;;3.01;79.54
75317;BME280;63913;51.492;10.368;2023-02-01T05:00:21;98207.59;;;3.02;79.57
75317;BME280;63913;51.492;10.368;2023-02-01T05:02:47;98213.84;;;3.08;80.03
75317;BME280;63913;51.492;10.368;2023-02-01T05:05:12;98204.28;;;3.03;80.00
75317;BME280;63913;51.492;10.368;2023-02-01T05:07:38;98203.28;;;2.99;80.40
75317;BME280;63913;51.492;10.368;2023-02-01T05:10:03;98215.31;;;3.03;80.16
75317;BME280;63913;51.492;10.368;2023-02-01T05:12:29;98199.00;;;2.98;79.64
75317;BME280;63913;51.492;10.368;2023-02-01T05:15:13;98215.16;;;3.00;79.96
75317;BME280;63913;51.492;10.368;2023-02-01T05:17:38;98210.91;;;2.99;79.94
75317;BME280;63913;51.492;10.368;2023-02-01T05:20:06;98199.13;;;3.01;79.87
75317;BME280;63913;51.492;10.368;2023-02-01T05:22:36;98196.53;;;3.00;79.63
75317;BME280;63913;51.492;10.368;2023-02-01T05:25:02;98193.41;;;3.05;79.49
75317;BME280;63913;51.492;10.368;2023-02-01T05:27:29;98190.72;;;3.02;79.35
75317;BME280;63913;51.492;10.368;2023-02-01T05:29:55;98183.09;;;3.02;79.06
75317;BME280;63913;51.492;10.368;2023-02-01T05:32:21;98185.63;;;3.02;79.09
75317;BME280;63913;51.492;10.368;2023-02-01T05:34:46;98190.06;;;3.06;79.11
75317;BME280;63913;51.492;10.368;2023-02-01T05:37:12;98185.63;;;3.02;79.28
75317;BME280;63913;51.492;10.368;2023-02-01T05:39:37;98183.31;;;3.07;79.53
75317;BME280;63913;51.492;10.368;2023-02-01T05:42:03;98170.31;;;3.01;79.99
75317;BME280;63913;51.492;10.368;2023-02-01T05:44:28;98183.16;;;3.04;79.63
75317;BME280;63913;51.492;10.368;2023-02-01T05:46:54;98186.84;;;3.11;79.05
75317;BME280;63913;51.492;10.368;2023-02-01T05:49:21;98170.63;;;3.07;78.94
75317;BME280;63913;51.492;10.368;2023-02-01T05:51:46;98173.44;;;3.13;79.08
75317;BME280;63913;51.492;10.368;2023-02-01T05:54:11;98164.94;;;3.13;78.78
75317;BME280;63913;51.492;10.368;2023-02-01T05:56:37;98168.28;;;3.12;78.45
75317;BME280;63913;51.492;10.368;2023-02-01T05:59:02;98161.59;;;3.14;78.35
75317;BME280;63913;51.492;10.368;2023-02-01T06:01:29;98160.59;;;3.10;78.50
75317;BME280;63913;51.492;10.368;2023-02-01T06:03:54;98177.03;;;3.18;78.32
75317;BME280;63913;51.492;10.368;2023-02-01T06:06:19;98163.34;;;3.15;78.56
75317;BME280;63913;51.492;10.368;2023-02-01T06:08:45;98170.16;;;3.16;78.85
75317;BME280;63913;51.492;10.368;2023-02-01T06:11:11;98166.59;;;3.12;79.32
75317;BME280;63913;51.492;10.368;2023-02-01T06:13:36;98169.88;;;3.10;80.19
75317;BME280;63913;51.492;10.368;2023-02-01T06:16:04;98162.06;;;3.05;80.50
75317;BME280;63913;51.492;10.368;2023-02-01T06:18:32;98187.38;;;3.03;81.92
75317;BME280;63913;51.492;10.368;2023-02-01T06:20:59;98177.06;;;3.00;81.62
75317;BME280;63913;51.492;10.368;2023-02-01T06:23:29;98178.75;;;3.00;82.27
75317;BME280;63913;51.492;10.368;2023-02-01T06:26:01;98165.63;;;2.91;82.87
75317;BME280;63913;51.492;10.368;2023-02-01T06:28:29;98196.91;;;2.90;82.72
75317;BME280;63913;51.492;10.368;2023-02-01T06:30:55;98168.53;;;2.81;83.53
75317;BME280;63913;51.492;10.368;2023-02-01T06:33:21;98174.41;;;2.80;84.35
75317;BME280;63913;51.492;10.368;2023-02-01T06:35:46;98166.16;;;2.84;84.32
75317;BME280;63913;51.492;10.368;2023-02-01T06:38:12;98167.00;;;2.84;84.39
75317;BME280;63913;51.492;10.368;2023-02-01T06:40:39;98142.00;;;2.74;84.07
75317;BME280;63913;51.492;10.368;2023-02-01T06:43:05;98158.16;;;2.76;84.23
75317;BME280;63913;51.492;10.368;2023-02-01T06:45:31;98157.00;;;2.69;84.93
75317;BME280;63913;51.492;10.368;2023-02-01T06:47:58;98155.22;;;2.67;85.15
75317;BME280;63913;51.492;10.368;2023-02-01T06:50:26;98147.44;;;2.64;85.54
75317;BME280;63913;51.492;10.368;2023-02-01T06:52:51;98166.88;;;2.63;85.65
75317;BME280;63913;51.492;10.368;2023-02-01T06:55:17;98163.53;;;2.64;85.25
75317;BME280;63913;51.492;10.368;2023-02-01T06:57:42;98150.63;;;2.60;85.94
75317;BME280;63913;51.492;10.368;2023-02-01T07:00:08;98147.28;;;2.61;86.23
75317;BME280;63913;51.492;10.368;2023-02-01T07:02:33;98153.22;;;2.61;85.96
75317;BME280;63913;51.492;10.368;2023-02-01T07:04:59;98147.88;;;2.55;86.22
75317;BME280;63913;51.492;10.368;2023-02-01T07:07:24;98150.63;;;2.60;85.82
75317;BME280;63913;51.492;10.368;2023-02-01T07:09:52;98149.91;;;2.62;86.06
75317;BME280;63913;51.492;10.368;2023-02-01T07:12:18;98156.78;;;2.65;85.97
75317;BME280;63913;51.492;10.368;2023-02-01T07:14:45;98159.06;;;2.59;85.97
75317;BME280;63913;51.492;10.368;2023-02-01T07:17:10;98166.88;;;2.63;85.75
75317;BME280;63913;51.492;10.368;2023-02-01T07:19:36;98152.00;;;2.71;84.99
75317;BME280;63913;51.492;10.368;2023-02-01T07:22:02;98157.75;;;2.67;85.58
75317;BME280;63913;51.492;10.368;2023-02-01T07:24:27;98159.63;;;2.71;85.38
75317;BME280;63913;51.492;10.368;2023-02-01T07:26:53;98159.63;;;2.71;85.47
75317;BME280;63913;51.492;10.368;2023-02-01T07:29:18;98170.72;;;2.73;85.64
75317;BME280;63913;51.492;10.368;2023-02-01T07:31:44;98158.91;;;2.74;85.49
75317;BME280;63913;51.492;10.368;2023-02-01T07:34:09;98168.03;;;2.70;85.29
75317;BME280;63913;51.492;10.368;2023-02-01T07:36:36;98168.03;;;2.70;84.98
75317;BME280;63913;51.492;10.368;2023-02-01T07:39:03;98159.91;;;2.77;84.79
75317;BME280;63913;51.492;10.368;2023-02-01T07:41:28;98178.69;;;2.81;85.24
75317;BME280;63913;51.492;10.368;2023-02-01T07:43:54;98174.31;;;2.78;85.23
75317;BME280;63913;51.492;10.368;2023-02-01T07:46:20;98175.34;;;2.82;84.89
75317;BME280;63913;51.492;10.368;2023-02-01T07:48:46;98175.44;;;2.83;84.78
75317;BME280;63913;51.492;10.368;2023-02-01T07:51:13;98187.38;;;2.86;84.79
75317;BME280;63913;51.492;10.368;2023-02-01T07:53:39;98178.91;;;2.85;84.73
75317;BME280;63913;51.492;10.368;2023-02-01T07:56:11;98199.34;;;2.88;84.24
75317;BME280;63913;51.492;10.368;2023-02-01T07:58:38;98176.66;;;2.91;83.75
75317;BME280;63913;51.492;10.368;2023-02-01T08:01:03;98197.03;;;2.93;83.89
75317;BME280;63913;51.492;10.368;2023-02-01T08:06:16;98171.06;;;2.98;83.38
75317;BME280;63913;51.492;10.368;2023-02-01T08:08:41;98174.47;;;2.99;83.33
75317;BME280;63913;51.492;10.368;2023-02-01T08:11:10;98186.44;;;3.01;83.02
75317;BME280;63913;51.492;10.368;2023-02-01T08:13:36;98184.03;;;3.04;82.86
75317;BME280;63913;51.492;10.368;2023-02-01T08:16:03;98217.03;;;3.04;83.10
75317;BME280;63913;51.492;10.368;2023-02-01T08:18:31;98211.31;;;3.08;82.82
75317;BME280;63913;51.492;10.368;2023-02-01T08:20:56;98207.25;;;3.12;81.88
75317;BME280;63913;51.492;10.368;2023-02-01T08:23:22;98215.66;;;3.11;82.61
75317;BME280;63913;51.492;10.368;2023-02-01T08:25:51;98221.75;;;3.15;82.14
75317;BME280;63913;51.492;10.368;2023-02-01T08:28:16;98235.47;;;3.18;82.24
75317;BME280;63913;51.492;10.368;2023-02-01T08:30:41;98225.22;;;3.17;82.04
75317;BME280;63913;51.492;10.368;2023-02-01T08:33:10;98234.66;;;3.19;82.04
75317;BME280;63913;51.492;10.368;2023-02-01T08:35:36;98233.00;;;3.20;82.60
75317;BME280;63913;51.492;10.368;2023-02-01T08:38:02;98219.41;;;3.19;82.58
75317;BME280;63913;51.492;10.368;2023-02-01T08:40:27;98234.91;;;3.24;81.75
75317;BME280;63913;51.492;10.368;2023-02-01T08:42:53;98228.94;;;3.23;81.83
75317;BME280;63913;51.492;10.368;2023-02-01T08:45:25;98257.97;;;3.28;80.41
75317;BME280;63913;51.492;10.368;2023-02-01T08:47:53;98241.84;;;3.28;81.10
75317;BME280;63913;51.492;10.368;2023-02-01T08:50:19;98255.25;;;3.25;82.17
75317;BME280;63913;51.492;10.368;2023-02-01T08:52:46;98262.84;;;3.24;82.51
75317;BME280;63913;51.492;10.368;2023-02-01T08:55:12;98267.69;;;3.19;82.96
75317;BME280;63913;51.492;10.368;2023-02-01T08:57:38;98274.16;;;3.13;83.70
75317;BME280;63913;51.492;10.368;2023-02-01T09:00:06;98251.88;;;3.07;84.52
75317;BME280;63913;51.492;10.368;2023-02-01T09:02:31;98244.19;;;3.05;84.78
75317;BME280;63913;51.492;10.368;2023-02-01T09:04:57;98267.69;;;3.01;84.09
75317;BME280;63913;51.492;10.368;2023-02-01T09:07:22;98269.31;;;2.99;85.20
75317;BME280;63913;51.492;10.368;2023-02-01T09:09:48;98275.97;;;2.97;86.26
75317;BME280;63913;51.492;10.368;2023-02-01T09:12:13;98278.94;;;2.89;86.19
75317;BME280;63913;51.492;10.368;2023-02-01T09:14:38;98256.50;;;2.80;86.83
75317;BME280;63913;51.492;10.368;2023-02-01T09:17:04;98275.88;;;2.78;87.18
75317;BME280;63913;51.492;10.368;2023-02-01T09:19:31;98275.78;;;2.77;86.72
75317;BME280;63913;51.492;10.368;2023-02-01T09:21:56;98274.13;;;2.77;86.81
75317;BME280;63913;51.492;10.368;2023-02-01T09:24:22;98259.06;;;2.80;85.53
75317;BME280;63913;51.492;10.368;2023-02-01T09:26:47;98260.13;;;2.85;85.84
75317;BME280;63913;51.492;10.368;2023-02-01T09:29:13;98266.25;;;2.89;85.22
75317;BME280;63913;51.492;10.368;2023-02-01T09:31:39;98274.00;;;2.92;85.77
75317;BME280;63913;51.492;10.368;2023-02-01T09:34:06;98275.88;;;2.96;85.20
75317;BME280;63913;51.492;10.368;2023-02-01T09:36:31;98285.00;;;2.92;84.97
75317;BME280;63913;51.492;10.368;2023-02-01T09:38:57;98275.69;;;2.91;85.25
75317;BME280;63913;51.492;10.368;2023-02-01T09:46:39;98272.31;;;2.92;85.25
75317;BME280;63913;51.492;10.368;2023-02-01T09:49:11;98285.97;;;2.94;84.42
75317;BME280;63913;51.492;10.368;2023-02-01T09:51:42;98298.94;;;3.00;84.22
75317;BME280;63913;51.492;10.368;2023-02-01T09:54:13;98276.41;;;3.06;84.38
75317;BME280;63913;51.492;10.368;2023-02-01T09:56:54;98271.34;;;3.06;84.27
75317;BME280;63913;51.492;10.368;2023-02-01T09:59:31;98272.41;;;3.12;82.87
75317;BME280;63913;51.492;10.368;2023-02-01T10:02:02;98280.25;;;3.16;83.30
75317;BME280;63913;51.492;10.368;2023-02-01T10:04:28;98282.06;;;3.19;82.76
75317;BME280;63913;51.492;10.368;2023-02-01T10:07:11;98285.69;;;3.24;82.10
75317;BME280;63913;51.492;10.368;2023-02-01T10:15:02;98281.91;;;3.33;81.98
75317;BME280;63913;51.492;10.368;2023-02-01T10:26:01;98281.97;;;3.53;80.34
75317;BME280;63913;51.492;10.368;2023-02-01T10:28:34;98287.38;;;3.60;79.40
75317;BME280;63913;51.492;10.368;2023-02-01T10:31:07;98291.06;;;3.67;79.83
75317;BME280;63913;51.492;10.368;2023-02-01T10:33:39;98281.94;;;3.70;79.28
75317;BME280;63913;51.492;10.368;2023-02-01T10:36:16;98281.41;;;3.77;78.58
75317;BME280;63913;51.492;10.368;2023-02-01T10:38:45;98270.53;;;3.81;77.77
75317;BME280;63913;51.492;10.368;2023-02-01T10:41:21;98292.72;;;3.84;78.17
75317;BME280;63913;51.492;10.368;2023-02-01T10:43:53;98270.78;;;3.86;77.74
75317;BME280;63913;51.492;10.368;2023-02-01T10:46:20;98269.44;;;3.94;76.57
75317;BME280;63913;51.492;10.368;2023-02-01T10:48:47;98269.38;;;3.93;76.21
75317;BME280;63913;51.492;10.368;2023-02-01T10:51:24;98272.50;;;3.87;76.88
75317;BME280;63913;51.492;10.368;2023-02-01T10:53:58;98279.47;;;3.91;76.12
75317;BME280;63913;51.492;10.368;2023-02-01T10:56:29;98280.06;;;3.86;75.96
75317;BME280;63913;51.492;10.368;2023-02-01T10:59:06;98266.56;;;3.87;75.65
75317;BME280;63913;51.492;10.368;2023-02-01T11:01:37;98260.59;;;3.86;74.78
75317;BME280;63913;51.492;10.368;2023-02-01T11:04:09;98258.84;;;3.85;74.62
75317;BME280;63913;51.492;10.368;2023-02-01T11:06:43;98268.22;;;3.86;74.47
75317;BME280;63913;51.492;10.368;2023-02-01T11:14:16;98270.78;;;3.86;73.72
75317;BME280;63913;51.492;10.368;2023-02-01T11:16:49;98251.38;;;3.88;73.58
75317;BME280;63913;51.492;10.368;2023-02-01T11:19:16;98266.56;;;3.87;73.82
75317;BME280;63913;51.492;10.368;2023-02-01T11:21:43;98249.47;;;3.84;74.17
75317;BME280;63913;51.492;10.368;2023-02-01T11:24:26;98252.97;;;3.86;73.98
75317;BME280;63913;51.492;10.368;2023-02-01T11:26:55;98252.16;;;3.87;74.01
75317;BME280;63913;51.492;10.368;2023-02-01T11:29:22;98249.41;;;3.82;73.54
75317;BME280;63913;51.492;10.368;2023-02-01T11:31:56;98242.78;;;3.86;73.55
75317;BME280;63913;51.492;10.368;2023-02-01T11:34:26;98241.13;;;3.87;74.15
75317;BME280;63913;51.492;10.368;2023-02-01T11:36:56;98230.00;;;3.84;74.00
75317;BME280;63913;51.492;10.368;2023-02-01T11:39:31;98226.75;;;3.87;73.95
75317;BME280;63913;51.492;10.368;2023-02-01T11:42:19;98225.88;;;3.87;74.01
75317;BME280;63913;51.492;10.368;2023-02-01T11:44:46;98218.25;;;3.87;73.83
75317;BME280;63913;51.492;10.368;2023-02-01T11:47:29;98223.31;;;3.87;74.37
75317;BME280;63913;51.492;10.368;2023-02-01T11:50:12;98218.31;;;3.88;73.49
75317;BME280;63913;51.492;10.368;2023-02-01T11:53:20;98214.81;;;3.86;73.48
75317;BME280;63913;51.492;10.368;2023-02-01T11:56:19;98224.28;;;3.89;73.51
75317;BME280;63913;51.492;10.368;2023-02-01T12:07:32;98211.19;;;4.00;71.43
75317;BME280;63913;51.492;10.368;2023-02-01T12:12:37;98190.94;;;4.02;71.63
75317;BME280;63913;51.492;10.368;2023-02-01T12:18:01;98182.50;;;4.03;71.79
75317;BME280;63913;51.492;10.368;2023-02-01T12:23:10;98174.97;;;4.06;71.31
75317;BME280;63913;51.492;10.368;2023-02-01T12:26:07;98163.13;;;4.06;71.76
75317;BME280;63913;51.492;10.368;2023-02-01T12:31:57;98149.50;;;4.04;71.99
75317;BME280;63913;51.492;10.368;2023-02-01T12:35:04;98144.44;;;4.06;71.73
75317;BME280;63913;51.492;10.368;2023-02-01T12:37:57;98134.41;;;4.09;71.41
75317;BME280;63913;51.492;10.368;2023-02-01T12:43:41;98106.28;;;4.06;72.35
75317;BME280;63913;51.492;10.368;2023-02-01T12:46:12;98123.28;;;4.07;72.07
75317;BME280;63913;51.492;10.368;2023-02-01T12:48:56;98103.75;;;4.06;71.93
75317;BME280;63913;51.492;10.368;2023-02-01T12:51:35;98117.41;;;4.08;72.17
75317;BME280;63913;51.492;10.368;2023-02-01T12:54:08;98109.03;;;4.10;71.62
75317;BME280;63913;51.492;10.368;2023-02-01T12:56:43;98100.53;;;4.10;71.04
75317;BME280;63913;51.492;10.368;2023-02-01T12:59:31;98086.94;;;4.09;71.19
75317;BME280;63913;51.492;10.368;2023-02-01T13:02:25;98089.66;;;4.14;71.69
75317;BME280;63913;51.492;10.368;2023-02-01T13:05:04;98096.31;;;4.10;71.59
75317;BME280;63913;51.492;10.368;2023-02-01T13:07:39;98099.81;;;4.12;71.92
75317;BME280;63913;51.492;10.368;2023-02-01T13:10:29;98090.59;;;4.16;71.56
75317;BME280;63913;51.492;10.368;2023-02-01T13:13:05;98078.09;;;4.20;70.80
75317;BME280;63913;51.492;10.368;2023-02-01T13:15:42;98073.91;;;4.22;70.90
75317;BME280;63913;51.492;10.368;2023-02-01T13:18:14;98078.41;;;4.28;69.65
75317;BME280;63913;51.492;10.368;2023-02-01T13:21:03;98063.19;;;4.30;69.79
75317;BME280;63913;51.492;10.368;2023-02-01T13:23:31;98053.19;;;4.34;68.89
75317;BME280;63913;51.492;10.368;2023-02-01T13:25:59;98046.34;;;4.33;69.48
75317;BME280;63913;51.492;10.368;2023-02-01T13:28:45;98044.59;;;4.32;69.59
75317;BME280;63913;51.492;10.368;2023-02-01T13:34:33;98034.50;;;4.34;69.23
75317;BME280;63913;51.492;10.368;2023-02-01T13:43:11;98031.59;;;4.25;71.12
75317;BME280;63913;51.492;10.368;2023-02-01T13:45:43;98024.59;;;4.19;71.75
75317;BME280;63913;51.492;10.368;2023-02-01T13:48:20;98027.00;;;4.16;71.86
75317;BME280;63913;51.492;10.368;2023-02-01T13:50:51;98015.06;;;4.13;72.91
75317;BME280;63913;51.492;10.368;2023-02-01T13:53:26;98019.06;;;4.08;72.97
75317;BME280;63913;51.492;10.368;2023-02-01T13:56:02;98020.00;;;4.10;72.82
75317;BME280;63913;51.492;10.368;2023-02-01T13:58:32;98039.34;;;4.07;73.47
75317;BME280;63913;51.492;10.368;2023-02-01T14:04:02;98012.00;;;4.01;74.84
75317;BME280;63913;51.492;10.368;2023-02-01T14:11:53;98000.09;;;4.00;75.05
75317;BME280;63913;51.492;10.368;2023-02-01T14:19:29;97979.88;;;4.03;75.10
75317;BME280;63913;51.492;10.368;2023-02-01T14:21:59;97993.41;;;4.02;75.50
75317;BME280;63913;51.492;10.368;2023-02-01T14:24:36;97997.47;;;3.97;76.81
75317;BME280;63913;51.492;10.368;2023-02-01T14:27:19;97996.53;;;3.95;76.62
75317;BME280;63913;51.492;10.368;2023-02-01T14:30:01;98009.16;;;3.94;76.63
75317;BME280;63913;51.492;10.368;2023-02-01T14:32:40;97992.88;;;3.89;77.57
75317;BME280;63913;51.492;10.368;2023-02-01T14:35:17;97997.91;;;3.87;78.66
75317;BME280;63913;51.492;10.368;2023-02-01T14:37:45;98002.78;;;3.82;79.65
75317;BME280;63913;51.492;10.368;2023-02-01T14:42:43;98000.00;;;3.76;80.83
75317;BME280;63913;51.492;10.368;2023-02-01T14:55:49;97981.84;;;3.47;84.41
75317;BME280;63913;51.492;10.368;2023-02-01T15:03:50;97982.38;;;3.39;84.22
75317;BME280;63913;51.492;10.368;2023-02-01T15:06:44;97970.59;;;3.41;84.61
75317;BME280;63913;51.492;10.368;2023-02-01T15:09:25;97978.50;;;3.48;84.45
75317;BME280;63913;51.492;10.368;2023-02-01T15:14:47;97972.78;;;3.53;83.49
75317;BME280;63913;51.492;10.368;2023-02-01T15:17:20;97977.00;;;3.53;83.82
75317;BME280;63913;51.492;10.368;2023-02-01T15:19:57;97987.28;;;3.56;83.83
75317;BME280;63913;51.492;10.368;2023-02-01T15:22:23;97993.09;;;3.53;83.54